Beogradi, Serbia

07:44 AM CEST on gusht 01, 2014 (GMT +0200)
Beograd-Karaburma (ISRBIJAB2) Elev 355 ft | 44.81 °N, 20.53 °E | Change Station

Current weather conditions updated 2 minutes ago

Mostly Cloudy
shumica me re
65.5 °F
Feels Like 65.5 °F
N
2.0
Era e paqendrueshme Era from LJL
Gusts 2.0 mph

Today is forecast to be Much Warmer than yesterday. Rain and thunder.

Sot
High -- | Low -- °F
--% Chance of Precip.
Yesterday
High -- | Low -- °F
Precip. -- ne
5:23 AM 8:04 PM
Waxing Crescent, 24% visible
Presioni 29.80 ne
Visioni 3.7 milje
Clouds re te shperndara 700 ft
shumica me re 4300 ft
Pika E Veses 65 °F
Lageshtira E ajrit 97%
Rainfall 0.04 ne
Snow Depth Not available.
UV 1 out of 12
Pollen Not available.
Air Quality Not available.
Flu Activity Not available.
METAR LYBE 010530Z 01003KT 340V070 6000 SCT007 BKN043 19/18 Q1009 NOSIG

More Conditions Fewer Conditions

Presioni 29.80 ne
Visioni 3.7 milje
Clouds re te shperndara 700 ft
shumica me re 4300 ft
Pika E Veses 65 °F
Lageshtira E ajrit 97%
Rainfall 0.04 ne
Snow Depth Not available.
UV 1 out of 12
Pollen Not available.
Air Quality Not available.
Flu Activity Not available.
METAR LYBE 010530Z 01003KT 340V070 6000 SCT007 BKN043 19/18 Q1009 NOSIG

More Conditions Fewer Conditions

10-Day Weather Forecast

Almanac

Astronomy

Aug. 01, 2014 Rise Set
Actual Time 5:23 AM CEST 8:04 PM CEST
Civil Twilight 4:50 AM CEST 8:37 PM CEST
Nautical Twilight 4:07 AM CEST 9:20 PM CEST
Astronomical Twilight 3:18 AM CEST 10:08 PM CEST
Moon 10:45 AM CEST 10:22 PM CEST
Length Of Visible Light 15h 47m
Length of Day
14h 40m
Tomorrow will be 2m 23s shorter.
Waxing Crescent, 24% of the Moon is Illuminated
Sot
Waxing Crescent
Aug 3
First Quarter
Aug 10
Full
Aug 17
Last Quarter
Aug 25
New

Community

WunderPhotos

Upload Photos

1,739,520 photos uploaded!

Nearby

Snow Depth

Not available.

Earthquake Activity

City Distance Mag. Time & Date
No recent earthquake activity has been reported nearby.
Minimum magnitude displayed is 2.5.

Coastal Water Temperatures

Vend Temperatura
No Stations Reporting

Nearby Weather Stations

Station Location Temp Pika E Veses Lageshtira E ajrit Era Precip. Elev te freskuara(Te Dhenat) Type
Beograd-Karaburma, Beograd-Karaburma 65.5 °F 65 °F 97% LJL  tek  2.0 mph 0.00 ne / hr 355 ft 7:41 AM CEST Normal
Pancevo 61.5 °F 57 °F 84% VL  tek  0.0 mph 0.03 ne / hr 78 ft 7:44 AM CEST Rapid Fire
Misa, Pancevo 66.2 °F 66 °F 99% JL  tek  0.0 mph 0.01 ne / hr 253 ft 7:44 AM CEST Rapid Fire
Zaklopaca, Grocka 64.8 °F 64 °F 97% Lindje  tek  0.0 mph 0.07 ne / hr 577 ft 7:30 AM CEST Normal
Duboko vinogradi, Bari%u010D 66.4 °F 64 °F 91% JJL  tek  0.0 mph 0.00 ne / hr 522 ft 7:40 AM CEST Normal
Babe, vikend naselje, Sopot 63.7 °F 63 °F 97% Veri  tek  - - / hr 1079 ft 7:44 AM CEST Normal

Show More Stations Show Fewer Stations